Time;durP1;ratioP1;P1;durP2;ratioP2;P2;SDS_P1;SDS_P2;PMS_P1;PMS_P2;Temp;Humidity;BMP_temperature;BMP_pressure;BME280_temperature;BME280_humidity;BME280_pressure;Samples;Min_cycle;Max_cycle;Signal;HPM_P1;HPM_P2
2021/06/28 00:01:04;;;;;;;5.72;3.47;;;;;;;20.34;69.58;96137.28;5046426;28;20044;-79
2021/06/28 00:03:29;;;;;;;4.97;3.38;;;;;;;20.35;68.97;96138.91;5029945;28;20016;-79
2021/06/28 00:05:55;;;;;;;4.30;3.05;;;;;;;20.38;68.47;96136.59;5029737;28;20640;-78
2021/06/28 00:08:21;;;;;;;6.80;3.30;;;;;;;20.34;69.29;96138.09;5040433;28;20025;-78
2021/06/28 00:10:46;;;;;;;6.47;3.65;;;;;;;20.35;69.28;96137.03;5045896;28;20520;-78
2021/06/28 00:13:12;;;;;;;5.10;3.60;;;;;;;20.31;69.20;96143.88;5029813;28;20104;-79
2021/06/28 00:15:38;;;;;;;6.05;3.40;;;;;;;20.17;71.21;96147.75;5047945;28;20449;-78
2021/06/28 00:18:09;;;;;;;7.63;3.58;;;;;;;20.04;72.04;96166.56;5045039;28;20031;-79
2021/06/28 00:20:36;;;;;;;8.63;3.40;;;;;;;20.01;72.16;96162.47;5045069;28;20104;-78
2021/06/28 00:23:03;;;;;;;7.47;3.90;;;;;;;19.91;73.82;96178.97;5029576;28;20033;-77
2021/06/28 00:25:29;;;;;;;4.72;3.58;;;;;;;19.82;75.92;96174.97;5046423;28;20441;-78
2021/06/28 00:27:56;;;;;;;7.15;4.10;;;;;;;19.69;77.11;96183.91;5028359;28;20067;-78
2021/06/28 00:30:23;;;;;;;4.90;3.75;;;;;;;19.71;78.12;96178.34;5045917;28;20493;-77
2021/06/28 00:32:50;;;;;;;9.23;4.28;;;;;;;19.57;79.60;96176.78;5045738;28;20385;-78
2021/06/28 00:35:19;;;;;;;5.75;4.03;;;;;;;19.52;80.84;96178.25;5028727;28;20501;-77
2021/06/28 00:37:46;;;;;;;8.25;4.38;;;;;;;19.39;82.10;96186.34;5040850;28;20032;-78
2021/06/28 00:40:13;;;;;;;5.90;4.28;;;;;;;19.36;83.04;96191.31;5044699;28;20037;-78
2021/06/28 00:42:39;;;;;;;6.43;4.15;;;;;;;19.29;84.07;96188.69;5046136;28;20715;-78
2021/06/28 00:45:22;;;;;;;9.35;4.65;;;;;;;19.26;84.52;96189.09;5055814;28;20025;-77
2021/06/28 00:47:49;;;;;;;5.25;4.07;;;;;;;19.34;83.89;96186.16;5024484;28;20510;-78
2021/06/28 00:50:16;;;;;;;5.43;3.90;;;;;;;19.32;84.32;96193.59;5045921;28;20037;-77
2021/06/28 00:52:44;;;;;;;8.00;4.32;;;;;;;19.30;84.66;96182.31;5045117;28;20087;-78
2021/06/28 00:55:11;;;;;;;5.55;3.78;;;;;;;19.24;85.11;96183.16;5044066;28;20379;-78
2021/06/28 00:57:37;;;;;;;6.68;3.55;;;;;;;19.24;85.30;96183.16;5044223;28;20086;-79
2021/06/28 01:00:05;;;;;;;7.65;3.95;;;;;;;19.23;85.63;96187.69;5043685;28;20025;-78
2021/06/28 01:02:32;;;;;;;7.00;4.15;;;;;;;19.22;85.59;96186.06;5037518;28;20033;-77
2021/06/28 01:04:57;;;;;;;6.43;3.75;;;;;;;19.15;86.41;96179.09;5047200;28;20041;-77
2021/06/28 01:07:23;;;;;;;6.30;3.47;;;;;;;19.21;86.23;96180.94;5044662;28;20070;-77
2021/06/28 01:09:49;;;;;;;7.05;3.72;;;;;;;19.13;86.29;96173.19;5045033;28;20027;-78
2021/06/28 01:12:15;;;;;;;6.10;3.83;;;;;;;19.17;86.09;96172.53;5043243;28;20091;-78
2021/06/28 01:14:42;;;;;;;5.15;3.28;;;;;;;19.22;85.98;96179.91;5045300;28;20486;-78
2021/06/28 01:17:08;;;;;;;4.50;3.30;;;;;;;19.09;86.76;96175.47;5044472;28;20132;-78
2021/06/28 01:19:37;;;;;;;5.20;3.58;;;;;;;19.11;86.83;96177.91;5042895;28;20017;-78
2021/06/28 01:22:07;;;;;;;4.80;3.47;;;;;;;19.13;86.68;96175.84;5040998;28;20479;-77
2021/06/28 01:24:33;;;;;;;7.28;3.78;;;;;;;19.08;87.56;96177.31;5044598;28;20078;-77
2021/06/28 01:26:59;;;;;;;4.90;3.22;;;;;;;19.08;87.72;96180.00;5059268;28;20116;-78
2021/06/28 01:29:26;;;;;;;6.10;4.00;;;;;;;19.02;88.12;96183.50;5028021;28;20132;-77
2021/06/28 01:31:51;;;;;;;5.97;3.90;;;;;;;19.07;88.15;96170.34;5027683;28;20039;-78
2021/06/28 01:34:17;;;;;;;6.65;3.30;;;;;;;19.08;88.21;96172.00;5043529;28;20033;-77
2021/06/28 01:36:43;;;;;;;5.80;3.63;;;;;;;19.04;88.40;96168.09;5043697;28;20145;-78
2021/06/28 01:39:09;;;;;;;6.00;3.75;;;;;;;18.97;88.87;96162.00;5043768;28;20025;-78
2021/06/28 01:41:35;;;;;;;7.30;4.25;;;;;;;18.97;88.59;96167.31;5045178;28;20500;-78
2021/06/28 01:44:00;;;;;;;6.03;4.30;;;;;;;18.86;89.69;96160.00;5044600;28;20032;-77
2021/06/28 01:46:27;;;;;;;11.00;4.03;;;;;;;18.76;90.33;96164.97;5036988;28;20661;-78
2021/06/28 01:48:52;;;;;;;8.75;4.43;;;;;;;18.73;90.39;96168.06;5041684;28;20041;-77
2021/06/28 01:51:18;;;;;;;5.75;3.50;;;;;;;18.84;89.79;96152.22;5043797;28;20048;-77
2021/06/28 01:53:44;;;;;;;6.50;3.92;;;;;;;18.97;89.42;96146.00;5044144;28;20854;-79
2021/06/28 01:56:11;;;;;;;4.57;3.30;;;;;;;18.99;89.30;96129.81;5045457;28;20036;-78
2021/06/28 01:58:37;;;;;;;5.75;3.83;;;;;;;19.07;88.51;96130.34;5050145;28;20105;-77
2021/06/28 02:01:04;;;;;;;6.82;3.83;;;;;;;18.88;89.07;96112.66;5028022;28;20041;-77
2021/06/28 02:03:37;;;;;;;5.07;3.70;;;;;;;18.85;89.68;96123.75;5047472;28;20082;-78
2021/06/28 02:06:03;;;;;;;5.35;3.40;;;;;;;18.83;89.44;96123.13;5066773;28;20025;-77
2021/06/28 02:08:32;;;;;;;5.65;4.00;;;;;;;18.84;89.33;96130.09;5046108;28;20036;-77
2021/06/28 02:11:00;;;;;;;4.55;3.45;;;;;;;18.93;88.94;96123.47;5046060;28;20055;-78
2021/06/28 02:13:37;;;;;;;6.00;3.67;;;;;;;18.87;89.33;96112.88;5047113;28;20021;-77
2021/06/28 02:16:03;;;;;;;6.75;3.78;;;;;;;18.97;89.08;96114.03;5046686;28;20036;-77
2021/06/28 02:18:30;;;;;;;5.45;3.28;;;;;;;19.00;89.03;96108.28;5044911;28;20708;-77
2021/06/28 02:20:58;;;;;;;5.07;3.58;;;;;;;18.89;89.00;96098.31;5047122;28;20387;-77
2021/06/28 02:23:36;;;;;;;6.55;3.78;;;;;;;18.97;88.89;96100.69;5046753;28;20406;-77
2021/06/28 02:26:05;;;;;;;6.05;3.83;;;;;;;18.97;87.97;96092.72;5038919;28;20048;-77
2021/06/28 02:28:34;;;;;;;9.05;3.40;;;;;;;18.89;88.35;96089.50;5041050;28;20021;-77
2021/06/28 02:31:00;;;;;;;6.28;3.67;;;;;;;18.83;88.61;96089.31;5044730;28;20082;-77
2021/06/28 02:33:27;;;;;;;6.70;3.83;;;;;;;18.89;88.09;96100.16;5047780;28;20086;-78
2021/06/28 02:35:53;;;;;;;6.63;4.50;;;;;;;18.73;89.26;96086.31;5046879;28;20040;-77
2021/06/28 02:38:19;;;;;;;6.30;4.20;;;;;;;18.74;89.52;96082.59;5045099;28;20500;-78
2021/06/28 02:40:44;;;;;;;6.47;3.80;;;;;;;18.77;89.33;96089.34;5046757;28;20029;-78
2021/06/28 02:43:10;;;;;;;6.30;3.67;;;;;;;18.84;89.19;96095.44;5046224;28;20478;-77
2021/06/28 02:45:37;;;;;;;6.00;4.10;;;;;;;18.91;88.63;96098.88;5046887;28;20459;-77
2021/06/28 02:48:04;;;;;;;6.80;3.95;;;;;;;18.94;87.97;96097.66;5046003;28;20025;-77
2021/06/28 02:50:29;;;;;;;4.93;3.70;;;;;;;18.95;88.32;96096.63;5046675;28;20028;-77
2021/06/28 02:52:55;;;;;;;6.40;3.58;;;;;;;18.91;89.01;96101.56;5045914;28;20029;-77
2021/06/28 02:55:21;;;;;;;4.57;3.83;;;;;;;18.78;89.05;96099.00;5046492;28;20024;-77
2021/06/28 02:57:48;;;;;;;6.07;3.90;;;;;;;18.67;89.93;96104.94;5045377;28;20024;-77
2021/06/28 03:00:16;;;;;;;6.43;3.95;;;;;;;18.66;89.71;96103.31;5046061;28;20119;-77
2021/06/28 03:02:42;;;;;;;5.65;3.90;;;;;;;18.46;90.89;96106.91;5049457;28;20130;-78
2021/06/28 03:05:10;;;;;;;6.10;4.03;;;;;;;18.53;90.18;96096.22;5047989;28;20033;-77
2021/06/28 03:07:36;;;;;;;5.18;3.60;;;;;;;18.63;89.95;96103.75;5029993;28;20031;-77
2021/06/28 03:10:05;;;;;;;8.02;4.10;;;;;;;18.68;89.58;96103.91;5048121;28;20405;-77
2021/06/28 03:12:31;;;;;;;5.95;3.75;;;;;;;18.69;89.65;96106.38;5031245;28;20025;-78
2021/06/28 03:14:56;;;;;;;7.90;4.60;;;;;;;18.71;90.12;96108.81;5047299;28;20037;-77
2021/06/28 03:17:22;;;;;;;6.30;4.00;;;;;;;18.72;89.75;96097.19;5047737;28;20131;-77
2021/06/28 03:19:48;;;;;;;5.95;4.15;;;;;;;18.74;89.96;96100.44;5046662;28;20543;-77
2021/06/28 03:22:16;;;;;;;8.52;3.60;;;;;;;18.79;89.64;96113.94;5046935;28;20107;-77
2021/06/28 03:24:42;;;;;;;6.00;3.97;;;;;;;18.70;90.47;96110.66;5046933;28;20025;-76
2021/06/28 03:27:07;;;;;;;4.88;3.67;;;;;;;18.56;91.88;96111.78;5029107;28;20025;-77
2021/06/28 03:29:33;;;;;;;5.72;3.97;;;;;;;18.68;90.38;96106.56;5023755;28;20760;-77
2021/06/28 03:31:59;;;;;;;5.40;4.10;;;;;;;18.70;90.63;96107.19;5047581;28;20180;-77
2021/06/28 03:34:25;;;;;;;5.55;4.00;;;;;;;18.47;91.97;96103.19;5047501;28;20171;-77
2021/06/28 03:36:50;;;;;;;7.70;4.78;;;;;;;18.35;92.52;96105.72;5043305;28;20124;-78
2021/06/28 03:39:16;;;;;;;15.20;5.40;;;;;;;18.17;93.87;96104.75;5032571;28;20156;-77
2021/06/28 03:41:42;;;;;;;6.43;4.75;;;;;;;18.12;94.65;96116.03;5046526;28;20048;-77
2021/06/28 03:44:08;;;;;;;6.68;4.00;;;;;;;18.10;95.19;96118.91;5047063;28;20616;-77
2021/06/28 03:46:33;;;;;;;5.78;4.32;;;;;;;18.17;94.56;96123.38;5046837;28;20021;-77
2021/06/28 03:48:59;;;;;;;7.68;4.03;;;;;;;18.30;93.73;96134.00;5041615;28;20048;-77
2021/06/28 03:51:26;;;;;;;8.40;4.78;;;;;;;18.19;93.75;96137.31;5046618;28;20036;-77
2021/06/28 03:53:52;;;;;;;6.72;4.38;;;;;;;18.29;93.42;96146.50;5046867;28;20044;-77
2021/06/28 03:56:18;;;;;;;8.48;5.00;;;;;;;18.40;92.30;96145.00;5046060;28;20041;-77
2021/06/28 03:58:45;;;;;;;7.72;5.28;;;;;;;18.29;93.72;96138.50;5044616;28;20548;-77
2021/06/28 04:01:11;;;;;;;7.80;4.93;;;;;;;18.45;92.37;96147.06;5030622;28;20051;-77
2021/06/28 04:03:38;;;;;;;6.88;4.95;;;;;;;18.53;91.16;96155.63;5046219;28;20029;-77
2021/06/28 04:06:06;;;;;;;6.30;4.85;;;;;;;18.50;91.62;96156.03;5030623;28;20025;-76
2021/06/28 04:08:36;;;;;;;7.60;5.22;;;;;;;18.59;91.41;96154.78;5046883;28;20025;-78
2021/06/28 04:11:03;;;;;;;5.85;4.22;;;;;;;18.56;91.08;96160.53;5045529;28;20102;-77
2021/06/28 04:13:29;;;;;;;6.40;4.90;;;;;;;18.48;91.59;96155.44;5046345;28;20056;-78
2021/06/28 04:15:56;;;;;;;8.18;4.38;;;;;;;18.53;91.64;96160.94;5046537;28;20044;-78
2021/06/28 04:18:22;;;;;;;10.68;4.60;;;;;;;18.37;92.37;96166.72;5045569;28;20036;-77
2021/06/28 04:20:48;;;;;;;6.60;4.53;;;;;;;18.26;92.90;96160.22;5029899;28;20041;-77
2021/06/28 04:23:14;;;;;;;7.05;4.60;;;;;;;18.29;92.93;96153.66;5029795;28;20083;-77
2021/06/28 04:25:40;;;;;;;6.53;4.38;;;;;;;18.34;92.88;96151.16;5045761;28;20037;-77
2021/06/28 04:28:06;;;;;;;5.88;4.38;;;;;;;18.24;93.35;96153.47;5044053;28;20032;-77
2021/06/28 04:30:32;;;;;;;6.43;4.40;;;;;;;18.10;93.89;96158.00;5045891;28;20025;-77
2021/06/28 04:32:58;;;;;;;10.88;4.90;;;;;;;18.14;93.93;96156.53;5045761;28;20029;-77
2021/06/28 04:35:26;;;;;;;6.60;4.88;;;;;;;18.10;94.21;96156.16;5047447;28;20512;-78
2021/06/28 04:37:52;;;;;;;7.03;5.03;;;;;;;18.11;94.01;96155.16;5042720;28;20837;-77
2021/06/28 04:40:22;;;;;;;10.23;5.20;;;;;;;18.21;93.38;96157.38;5061370;28;20052;-78
2021/06/28 04:42:49;;;;;;;7.80;4.88;;;;;;;18.33;92.94;96146.88;5062734;28;20564;-77
2021/06/28 04:45:17;;;;;;;6.65;4.40;;;;;;;18.38;92.82;96141.75;5045893;28;20114;-77
2021/06/28 04:47:43;;;;;;;6.32;4.70;;;;;;;18.45;93.11;96141.75;5047027;28;20024;-77
2021/06/28 04:50:10;;;;;;;7.03;4.90;;;;;;;18.50;92.95;96137.41;5036953;28;20053;-77
2021/06/28 04:52:37;;;;;;;6.72;5.00;;;;;;;18.50;92.49;96134.72;5046197;28;20036;-77
2021/06/28 04:55:08;;;;;;;9.13;4.57;;;;;;;18.51;93.24;96131.06;5052761;28;20090;-77
2021/06/28 04:57:35;;;;;;;6.85;4.65;;;;;;;18.60;93.30;96120.97;5044617;28;20036;-77
2021/06/28 05:00:01;;;;;;;6.20;4.50;;;;;;;18.57;93.51;96124.88;5045530;28;20020;-78
2021/06/28 05:02:27;;;;;;;6.82;4.40;;;;;;;18.52;93.72;96122.03;5038098;28;20025;-77
2021/06/28 05:04:52;;;;;;;5.50;4.10;;;;;;;18.52;93.82;96127.34;5029650;28;20832;-78
2021/06/28 05:07:18;;;;;;;6.85;4.13;;;;;;;18.59;93.86;96114.00;5042393;28;20116;-77
2021/06/28 05:09:45;;;;;;;7.97;4.75;;;;;;;18.68;93.22;96122.56;5044513;28;20031;-76
2021/06/28 05:12:13;;;;;;;6.43;4.80;;;;;;;18.66;92.82;96113.97;5045566;28;20063;-77
2021/06/28 05:14:39;;;;;;;6.25;4.70;;;;;;;18.38;93.43;96115.13;5044677;28;20486;-77
2021/06/28 05:17:08;;;;;;;7.82;5.55;;;;;;;18.19;94.93;96106.19;5035138;28;20056;-77
2021/06/28 05:19:34;;;;;;;7.78;5.13;;;;;;;18.40;94.74;96107.75;5044311;28;20039;-78
2021/06/28 05:22:00;;;;;;;14.65;9.57;;;;;;;18.67;92.96;96105.75;5045124;28;20032;-76
2021/06/28 05:24:25;;;;;;;8.75;7.32;;;;;;;18.89;92.41;96100.97;5027385;28;20045;-77
2021/06/28 05:26:51;;;;;;;7.22;5.05;;;;;;;19.01;91.60;96114.41;5043400;28;20071;-78
2021/06/28 05:29:17;;;;;;;7.05;4.50;;;;;;;19.14;90.94;96116.19;5045027;28;20059;-77
2021/06/28 05:31:43;;;;;;;7.55;4.65;;;;;;;19.13;89.99;96119.88;5061293;28;20082;-77
2021/06/28 05:34:09;;;;;;;12.95;10.13;;;;;;;19.12;89.40;96113.75;5042148;28;20614;-77
2021/06/28 05:36:35;;;;;;;8.27;5.40;;;;;;;18.93;90.05;96112.81;5044932;28;20517;-78
2021/06/28 05:39:01;;;;;;;5.93;3.97;;;;;;;18.64;91.66;96102.72;5044368;28;20558;-77
2021/06/28 05:41:27;;;;;;;8.07;5.05;;;;;;;18.97;90.65;96108.69;5027837;28;20052;-78
2021/06/28 05:43:52;;;;;;;5.78;4.38;;;;;;;19.35;88.84;96104.31;5056245;28;20159;-77
2021/06/28 05:46:18;;;;;;;8.10;4.00;;;;;;;19.93;86.30;96098.72;5045362;28;20048;-78
2021/06/28 05:48:44;;;;;;;6.78;4.00;;;;;;;20.16;84.44;96106.06;5024088;28;20032;-77
2021/06/28 05:51:09;;;;;;;10.27;4.25;;;;;;;20.44;82.43;96108.19;5038198;28;20043;-77
2021/06/28 05:53:37;;;;;;;5.82;4.20;;;;;;;20.81;80.72;96114.31;5039737;28;20123;-77
2021/06/28 05:56:04;;;;;;;6.25;4.03;;;;;;;20.73;79.72;96114.66;5043532;28;20044;-78
2021/06/28 05:58:31;;;;;;;6.00;4.05;;;;;;;20.62;81.15;96120.72;5026296;28;20025;-78
2021/06/28 06:00:59;;;;;;;5.95;4.15;;;;;;;21.00;77.50;96114.28;5054763;28;21102;-78
2021/06/28 06:03:25;;;;;;;6.35;4.05;;;;;;;20.86;78.47;96119.81;5045205;28;20033;-78
2021/06/28 06:05:52;;;;;;;7.88;4.00;;;;;;;21.01;77.51;96119.38;5043263;28;20083;-77
2021/06/28 06:08:25;;;;;;;5.63;4.30;;;;;;;21.14;76.63;96118.38;5044851;28;20032;-78
2021/06/28 06:10:52;;;;;;;5.38;3.50;;;;;;;21.30;74.58;96116.91;5044486;28;20029;-78
2021/06/28 06:13:19;;;;;;;5.28;4.25;;;;;;;21.44;74.53;96112.19;5044449;28;20049;-78
2021/06/28 06:15:45;;;;;;;8.20;6.00;;;;;;;21.80;74.73;96120.03;5041986;28;20475;-78
2021/06/28 06:18:11;;;;;;;6.80;4.20;;;;;;;21.91;74.28;96123.75;5021827;28;20025;-78
2021/06/28 06:20:37;;;;;;;5.03;3.88;;;;;;;21.76;74.43;96121.53;5043296;28;20496;-78
2021/06/28 06:23:03;;;;;;;6.65;3.90;;;;;;;21.79;74.33;96120.25;5045670;28;20136;-78
2021/06/28 06:25:29;;;;;;;5.80;4.07;;;;;;;22.03;73.45;96115.69;5044960;28;20553;-78
2021/06/28 06:33:11;;;;;;;5.57;3.75;;;;;;;21.68;72.96;96127.22;5001836;28;20069;-77
2021/06/28 06:35:38;;;;;;;13.73;10.88;;;;;;;22.64;69.78;96119.69;4984662;28;20069;-77
2021/06/28 06:38:04;;;;;;;7.57;4.47;;;;;;;21.89;72.73;96121.28;4993029;28;20128;-77
2021/06/28 06:40:30;;;;;;;7.40;3.83;;;;;;;22.19;71.22;96125.72;5011710;28;20025;-76
2021/06/28 06:42:57;;;;;;;6.38;4.35;;;;;;;22.39;70.96;96119.19;4995004;28;20037;-76
2021/06/28 06:45:27;;;;;;;7.50;4.50;;;;;;;22.34;71.30;96127.94;4969598;28;20129;-77
2021/06/28 06:47:53;;;;;;;5.78;3.97;;;;;;;22.17;72.75;96133.19;4979272;28;20100;-77
2021/06/28 06:50:18;;;;;;;6.90;4.38;;;;;;;23.11;69.17;96122.22;5012443;28;20029;-77
2021/06/28 06:52:48;;;;;;;6.13;4.22;;;;;;;23.96;64.87;96123.06;4992681;28;20041;-77
2021/06/28 06:55:15;;;;;;;8.50;3.78;;;;;;;24.86;61.31;96129.09;4976385;28;20030;-77
2021/06/28 06:57:41;;;;;;;8.23;4.70;;;;;;;25.65;59.08;96123.13;4995649;28;20033;-77
2021/06/28 07:00:12;;;;;;;6.38;3.75;;;;;;;25.29;59.90;96127.41;4990494;28;20124;-78
2021/06/28 07:02:38;;;;;;;9.93;3.30;;;;;;;26.10;56.37;96127.25;5008994;28;20054;-77
2021/06/28 07:05:04;;;;;;;6.90;3.92;;;;;;;25.10;60.81;96124.22;4991658;28;20520;-78
2021/06/28 07:07:30;;;;;;;6.45;4.43;;;;;;;24.97;61.12;96117.38;4993976;28;20470;-77
2021/06/28 07:09:56;;;;;;;14.80;10.50;;;;;;;24.93;62.50;96121.63;5011717;28;20173;-78
2021/06/28 07:12:22;;;;;;;7.70;4.13;;;;;;;25.01;61.04;96123.88;4993732;28;20665;-78
2021/06/28 07:14:48;;;;;;;5.38;3.33;;;;;;;24.46;62.63;96128.34;5006545;28;20429;-78
2021/06/28 07:17:14;;;;;;;6.90;3.63;;;;;;;24.15;63.89;96127.13;4979858;28;20072;-78
2021/06/28 07:19:39;;;;;;;5.13;3.80;;;;;;;24.02;64.71;96135.53;4976422;28;20025;-78
2021/06/28 07:22:05;;;;;;;6.43;3.72;;;;;;;23.63;66.22;96135.44;4972792;28;20042;-77
2021/06/28 07:24:32;;;;;;;8.45;3.90;;;;;;;23.88;65.49;96136.94;4978100;28;20373;-77
2021/06/28 07:26:58;;;;;;;5.18;3.67;;;;;;;24.50;63.29;96125.16;4974053;28;20037;-78
2021/06/28 07:29:24;;;;;;;6.40;3.50;;;;;;;26.07;58.97;96117.00;4976621;28;20026;-77
2021/06/28 07:31:51;;;;;;;8.25;3.47;;;;;;;25.93;58.49;96116.66;4988962;28;20061;-77
2021/06/28 07:34:16;;;;;;;7.03;4.22;;;;;;;25.66;59.27;96116.69;5012316;28;20029;-78
2021/06/28 07:36:42;;;;;;;6.43;3.67;;;;;;;27.16;55.17;96114.50;4977250;28;20116;-78
2021/06/28 07:39:08;;;;;;;4.18;3.38;;;;;;;27.53;54.15;96114.28;4974973;28;20033;-78
2021/06/28 07:41:34;;;;;;;6.32;3.60;;;;;;;26.91;55.22;96123.34;5006893;28;20038;-78
2021/06/28 07:44:02;;;;;;;9.68;3.47;;;;;;;28.03;52.07;96119.94;4995441;28;20776;-77
2021/06/28 07:46:28;;;;;;;6.30;3.33;;;;;;;27.89;53.15;96117.81;4992585;28;20116;-77
2021/06/28 07:48:54;;;;;;;13.98;4.35;;;;;;;26.80;55.65;96127.91;4994686;28;20037;-77
2021/06/28 07:51:20;;;;;;;6.90;3.33;;;;;;;27.70;52.76;96119.44;4977986;28;20363;-78
2021/06/28 07:53:46;;;;;;;15.52;3.83;;;;;;;27.89;51.19;96125.09;4993463;28;20053;-79
2021/06/28 07:56:16;;;;;;;5.50;3.63;;;;;;;28.06;50.02;96117.50;4977947;28;20096;-78
2021/06/28 07:58:43;;;;;;;6.43;3.63;;;;;;;29.45;47.35;96117.75;4996831;28;20030;-78
2021/06/28 08:01:10;;;;;;;3.78;2.88;;;;;;;31.13;43.56;96121.47;4972357;28;20398;-78
2021/06/28 08:03:36;;;;;;;5.90;2.92;;;;;;;31.32;42.64;96120.63;4992096;28;20043;-78
2021/06/28 08:06:01;;;;;;;4.18;3.00;;;;;;;31.67;40.47;96114.69;4997552;28;20478;-78
2021/06/28 08:08:27;;;;;;;3.78;2.58;;;;;;;31.82;39.49;96120.97;4980016;28;20042;-79
2021/06/28 08:10:53;;;;;;;4.35;2.90;;;;;;;31.34;38.96;96121.19;4986994;28;20026;-77
2021/06/28 08:13:19;;;;;;;4.20;2.55;;;;;;;31.06;40.29;96115.59;5014724;28;20092;-78
2021/06/28 08:15:44;;;;;;;3.67;2.80;;;;;;;31.79;38.72;96116.94;5005407;28;20101;-78
2021/06/28 08:18:10;;;;;;;3.67;2.70;;;;;;;31.23;39.38;96115.06;4980161;28;20034;-78
2021/06/28 08:20:37;;;;;;;7.57;3.92;;;;;;;31.13;40.40;96115.22;4994934;28;20135;-79
2021/06/28 08:23:04;;;;;;;6.72;4.47;;;;;;;31.14;38.82;96104.06;4993320;28;20076;-77
2021/06/28 08:25:29;;;;;;;4.18;3.28;;;;;;;30.91;39.73;96111.16;5012756;28;20022;-78
2021/06/28 08:27:55;;;;;;;4.85;2.90;;;;;;;31.30;40.02;96114.72;4991366;28;20025;-78
2021/06/28 08:30:22;;;;;;;3.72;2.35;;;;;;;30.73;39.59;96107.28;4995052;28;20553;-79
2021/06/28 08:32:47;;;;;;;4.18;2.75;;;;;;;32.89;36.73;96099.13;4991025;28;20072;-80
2021/06/28 08:35:14;;;;;;;3.50;2.80;;;;;;;32.89;36.58;96108.09;4993429;28;20410;-78
2021/06/28 08:37:40;;;;;;;3.75;2.20;;;;;;;33.60;34.96;96094.00;4979806;28;20088;-78
2021/06/28 08:40:07;;;;;;;4.03;2.75;;;;;;;33.61;34.81;96099.16;4994737;28;20037;-79
2021/06/28 08:42:33;;;;;;;3.20;2.35;;;;;;;34.04;35.17;96106.84;4994455;28;20029;-80
2021/06/28 08:44:58;;;;;;;4.07;3.03;;;;;;;33.07;35.96;96098.22;5013014;28;20543;-80
2021/06/28 08:47:24;;;;;;;3.53;2.90;;;;;;;32.75;36.38;96096.41;4995228;28;20033;-79
2021/06/28 08:49:50;;;;;;;5.85;3.22;;;;;;;32.02;38.79;96087.19;4995369;28;20679;-80
2021/06/28 08:52:19;;;;;;;4.35;3.50;;;;;;;32.76;37.10;96090.66;4998070;28;20033;-79
2021/06/28 08:54:45;;;;;;;3.53;2.65;;;;;;;33.58;36.04;96079.88;5011254;28;20738;-78
2021/06/28 08:57:10;;;;;;;4.30;2.95;;;;;;;32.92;36.88;96085.69;4994430;28;20065;-78
2021/06/28 08:59:36;;;;;;;3.55;2.90;;;;;;;32.88;36.74;96087.41;5009611;28;20081;-79
2021/06/28 09:02:03;;;;;;;4.28;3.20;;;;;;;34.88;32.65;96086.75;4995626;28;20088;-77
2021/06/28 09:04:28;;;;;;;4.88;2.83;;;;;;;33.54;35.59;96087.88;4985197;28;20033;-79
2021/06/28 09:07:21;;;;;;;5.07;2.88;;;;;;;32.72;37.15;96088.84;5013457;28;20452;-78
2021/06/28 09:09:47;;;;;;;3.10;2.60;;;;;;;32.99;35.72;96088.81;4989943;28;20033;-81
2021/06/28 09:12:15;;;;;;;4.03;3.00;;;;;;;33.06;35.93;96089.22;4991858;28;20033;-79
2021/06/28 09:14:45;;;;;;;7.18;2.90;;;;;;;32.76;34.82;96092.56;4998180;28;20041;-78
2021/06/28 09:17:23;;;;;;;3.58;2.30;;;;;;;32.47;34.92;96088.28;4979488;28;20045;-80
2021/06/28 09:20:23;;;;;;;4.00;2.50;;;;;;;34.29;31.69;96080.78;4994347;28;20069;-80
2021/06/28 09:22:50;;;;;;;3.53;2.50;;;;;;;33.36;32.99;96086.09;4993622;28;20029;-82
2021/06/28 09:25:34;;;;;;;2.38;2.05;;;;;;;31.62;35.42;96093.03;5015721;28;20083;-80
2021/06/28 09:28:01;;;;;;;2.47;2.10;;;;;;;31.68;35.63;96099.19;4993758;28;20045;-80
2021/06/28 09:30:27;;;;;;;3.35;2.03;;;;;;;32.51;34.40;96093.91;4970771;28;20061;-80
2021/06/28 09:33:01;;;;;;;3.72;2.30;;;;;;;32.50;33.29;96101.28;4995284;28;20025;-80
2021/06/28 09:35:28;;;;;;;5.07;2.83;;;;;;;30.19;38.78;96100.34;4976142;28;20038;-78
2021/06/28 09:37:54;;;;;;;4.03;2.92;;;;;;;30.71;38.58;96098.63;4992578;28;20029;-79
2021/06/28 09:40:25;;;;;;;3.95;2.88;;;;;;;32.24;35.23;96086.53;5013976;28;20048;-79
2021/06/28 09:42:51;;;;;;;5.00;3.20;;;;;;;31.53;37.89;96089.38;4983296;28;20117;-79
2021/06/28 09:45:19;;;;;;;3.92;3.22;;;;;;;32.18;36.74;96096.69;4982090;28;20642;-81
2021/06/28 09:47:45;;;;;;;4.15;2.80;;;;;;;31.06;37.69;96088.44;4995957;28;20022;-79
2021/06/28 09:50:18;;;;;;;4.40;2.60;;;;;;;32.56;35.77;96080.19;4996319;28;20034;-79
2021/06/28 09:52:46;;;;;;;3.88;2.88;;;;;;;33.03;36.18;96078.94;5010938;28;20033;-79
2021/06/28 09:55:24;;;;;;;3.65;2.58;;;;;;;32.99;35.07;96075.22;5003837;28;20076;-80
2021/06/28 09:58:09;;;;;;;5.00;3.35;;;;;;;33.78;33.68;96082.91;4976578;28;20034;-81
2021/06/28 10:00:47;;;;;;;5.68;2.90;;;;;;;33.84;34.22;96075.41;5006597;28;20053;-79
2021/06/28 10:03:40;;;;;;;3.33;2.70;;;;;;;33.85;32.36;96071.53;4997846;28;20044;-80
2021/06/28 10:08:36;;;;;;;4.80;2.42;;;;;;;32.07;35.67;96076.25;5005444;28;20367;-79
2021/06/28 10:11:13;;;;;;;3.00;2.40;;;;;;;32.53;34.12;96081.63;5012062;28;20041;-79
2021/06/28 10:13:39;;;;;;;3.95;2.63;;;;;;;33.82;33.25;96079.56;4996395;28;20443;-79
2021/06/28 10:16:06;;;;;;;4.53;2.60;;;;;;;33.34;31.48;96083.69;5003727;28;20030;-79
2021/06/28 10:18:32;;;;;;;4.03;2.55;;;;;;;32.06;32.57;96074.59;5000297;28;20045;-78
2021/06/28 10:20:58;;;;;;;3.33;2.13;;;;;;;31.83;34.23;96079.09;4983882;28;20027;-78
2021/06/28 10:23:24;;;;;;;3.83;2.55;;;;;;;33.07;31.26;96073.69;4983023;28;20029;-79
2021/06/28 10:25:49;;;;;;;5.90;2.35;;;;;;;34.46;29.80;96075.38;4982487;28;20069;-80
2021/06/28 10:28:15;;;;;;;4.25;2.78;;;;;;;32.90;32.46;96082.47;4968653;28;20030;-80
2021/06/28 10:30:41;;;;;;;3.72;2.42;;;;;;;33.47;30.32;96077.38;5007642;28;20461;-79
2021/06/28 10:33:12;;;;;;;3.17;2.30;;;;;;;34.28;30.80;96079.16;4974558;28;20041;-79
2021/06/28 10:35:40;;;;;;;4.32;2.60;;;;;;;34.09;32.27;96082.13;4989692;28;22217;-79
2021/06/28 10:38:11;;;;;;;3.00;2.40;;;;;;;34.38;30.76;96078.88;4989769;28;20022;-78
2021/06/28 10:40:54;;;;;;;4.13;2.10;;;;;;;34.17;29.91;96075.09;4987264;28;20050;-79
2021/06/28 10:43:27;;;;;;;4.20;2.47;;;;;;;33.16;33.23;96082.72;5008111;28;20117;-79
2021/06/28 10:45:53;;;;;;;3.83;2.60;;;;;;;33.58;31.57;96071.72;4988357;28;20062;-79
2021/06/28 10:48:23;;;;;;;6.32;2.65;;;;;;;32.56;33.39;96077.47;4984987;28;20015;-79
2021/06/28 10:50:52;;;;;;;4.85;2.65;;;;;;;33.79;30.29;96076.31;5000345;28;20108;-79
2021/06/28 10:53:39;;;;;;;4.10;2.25;;;;;;;35.06;30.01;96070.41;4987220;28;20033;-78
2021/06/28 10:56:26;;;;;;;4.30;3.03;;;;;;;34.96;30.61;96061.38;5003087;28;20034;-80
2021/06/28 10:59:01;;;;;;;5.68;2.35;;;;;;;33.27;32.65;96066.97;4991133;28;20437;-80
2021/06/28 11:01:39;;;;;;;3.42;2.55;;;;;;;33.04;32.78;96063.41;5000520;28;20409;-80
2021/06/28 11:04:05;;;;;;;2.63;2.33;;;;;;;34.31;30.87;96053.16;4986856;28;20084;-80
2021/06/28 11:06:31;;;;;;;3.08;2.10;;;;;;;33.95;30.11;96049.47;4975613;28;20025;-83
2021/06/28 11:09:06;;;;;;;2.22;1.83;;;;;;;34.21;30.28;96046.06;4995046;28;20441;-80
2021/06/28 11:11:44;;;;;;;3.83;2.30;;;;;;;34.24;28.37;96042.72;4982722;28;20034;-79
2021/06/28 11:14:19;;;;;;;3.00;2.15;;;;;;;35.22;28.06;96048.88;5003334;28;20027;-80
2021/06/28 11:17:09;;;;;;;3.50;2.45;;;;;;;32.99;32.66;96045.25;4986263;28;20101;-80
2021/06/28 11:20:03;;;;;;;4.63;3.03;;;;;;;33.93;30.52;96043.50;4977690;28;20065;-80
2021/06/28 11:22:48;;;;;;;4.28;3.22;;;;;;;36.66;27.72;96038.19;4986876;28;20065;-79
2021/06/28 11:25:17;;;;;;;4.72;2.53;;;;;;;36.78;26.25;96024.56;5008821;28;20030;-82
2021/06/28 11:28:10;;;;;;;2.83;2.20;;;;;;;34.97;29.13;96024.72;4993182;28;20022;-80
2021/06/28 11:30:46;;;;;;;4.75;2.20;;;;;;;35.83;26.82;96022.25;4980027;28;20477;-79
2021/06/28 11:33:14;;;;;;;3.67;2.17;;;;;;;35.45;28.65;96017.50;4992313;28;20029;-80
2021/06/28 11:35:51;;;;;;;3.75;2.50;;;;;;;34.54;29.92;96021.91;5014325;28;20036;-79
2021/06/28 11:38:27;;;;;;;2.90;1.95;;;;;;;34.88;28.75;96023.91;5004708;28;20037;-80
2021/06/28 11:40:59;;;;;;;3.35;2.30;;;;;;;35.31;27.72;96022.31;4988270;28;20041;-79
2021/06/28 11:43:46;;;;;;;3.65;2.33;;;;;;;33.27;31.82;96017.91;5011103;28;20114;-79
2021/06/28 11:46:33;;;;;;;2.88;2.33;;;;;;;33.02;30.88;96013.84;4978889;28;20045;-79